Sira — V7QT5 — position and weather

sailwx.info

Track history (hours):
 
Tides and Currents Weather Stations Pressure Air Temp Water Temp Dewpoint Dewpoint Depression Visibility Wind Speed Wind Dir Waves Ship Positions

Sira

Last reported at 2015-Apr-19 13:26 UTC. Time now 2015-May-06 08:27 UTC.
Position N 36°25' E 014°05'.
Warning: this ship's position is 16 days out of date.

Length 147 m; draft 9.8 m.

MMSI: 538003434.

Date/timePositionNaut miles runAvg speedWind from/ knotsBaromVisibWave heightAir tempDewpointWater temp
2015-Apr-19 13:26N 36°25' E 014°05'1112.9
2015-Apr-19 12:33N 36°29' E 013°51'1613.2
2015-Apr-19 11:23N 36°33' E 013°33'1113.6
2015-Apr-19 10:34N 36°37' E 013°20'1413.2
2015-Apr-19 09:28N 36°42' E 013°03'1313.4
2015-Apr-19 08:32N 36°46' E 012°48'1413.0
2015-Apr-19 07:27N 36°49' E 012°31'2513.3
2015-Apr-19 05:33N 36°59' E 012°02'1313.3
2015-Apr-19 04:33N 37°05' E 011°47'1413.3
2015-Apr-19 03:32N 37°12' E 011°32'1413.2
2015-Apr-19 02:29N 37°19' E 011°17'4313.5
2015-Apr-18 23:19N 37°39' E 010°30'3813.5
2015-Apr-18 20:29N 37°48' E 009°43'1314.1
2015-Apr-18 19:32N 37°49' E 009°26'1413.9
2015-Apr-18 18:32N 37°51' E 009°08'1313.5
2015-Apr-18 17:33N 37°51' E 008°52'1413.4
2015-Apr-18 16:33N 37°50' E 008°35'5913.7
2015-Apr-18 12:14N 37°45' E 007°20'38513.3
2015-Apr-17 07:14N 36°36' W 000°36'22613.3
2015-Apr-16 14:13N 36°01' W 005°12'1015.4
2015-Apr-16 13:33N 35°58' W 005°24'  
2015-Apr-12 18:31N 28°42' W 014°44'1414.1
2015-Apr-12 17:34N 28°33' W 014°55'1313.3
2015-Apr-12 16:33N 28°23' W 015°06'1211.9
2015-Apr-12 15:33N 28°14' W 015°15'1110.8
2015-Apr-12 14:33N 28°07' W 015°24'1 0.7
2015-Apr-12 13:27N 28°07' W 015°25'0 0.1
2015-Apr-12 12:27N 28°07' W 015°25'0 0.0
2015-Apr-12 11:27N 28°07' W 015°25'0 0.0
2015-Apr-12 10:30N 28°07' W 015°25'0 0.0
2015-Apr-12 09:30N 28°07' W 015°25'0 0.0
2015-Apr-12 08:33N 28°07' W 015°25'0 0.0
2015-Apr-12 07:33N 28°07' W 015°25'0 0.0
2015-Apr-12 06:30N 28°07' W 015°25'0 0.0
2015-Apr-12 05:33N 28°07' W 015°25'0 0.0
2015-Apr-12 04:33N 28°07' W 015°25'0 0.0
2015-Apr-12 03:33N 28°07' W 015°25'1 0.7
2015-Apr-12 02:33N 28°07' W 015°24'1 1.0
2015-Apr-12 01:23N 28°08' W 015°24'0 0.0
2015-Apr-12 00:26N 28°08' W 015°24'0 0.0
2015-Apr-11 23:26N 28°08' W 015°24'0 0.0
2015-Apr-11 22:26N 28°08' W 015°24'0 0.0
2015-Apr-11 21:26N 28°08' W 015°24'0 0.0
2015-Apr-11 20:29N 28°08' W 015°24'0 0.0
2015-Apr-11 19:32N 28°08' W 015°24'0 0.0
2015-Apr-11 18:32N 28°08' W 015°24'0 0.0
2015-Apr-11 17:29N 28°09' W 015°24'0 0.0
2015-Apr-11 16:32N 28°09' W 015°24'0 0.0
2015-Apr-11 15:32N 28°08' W 015°24'0 0.0
2015-Apr-11 14:32N 28°09' W 015°24'0 0.0
2015-Apr-11 13:32N 28°09' W 015°24'0 0.0
2015-Apr-11 12:32N 28°09' W 015°24'0 0.0
2015-Apr-11 11:23N 28°09' W 015°24'0 0.0
2015-Apr-11 10:23N 28°09' W 015°24'1 0.8
2015-Apr-11 09:33N 28°08' W 015°23'7 6.6
2015-Apr-11 08:33N 28°08' W 015°16'9 9.0
2015-Apr-11 07:33N 28°09' W 015°06'9 8.7
2015-Apr-11 06:33N 28°06' W 014°57'8 8.5
2015-Apr-11 05:33N 27°57' W 014°58'9 9.0
2015-Apr-11 04:33N 27°49' W 015°02'9 8.8
2015-Apr-11 03:34N 27°41' W 015°06'9 8.5
2015-Apr-11 02:33N 27°33' W 015°10'  
Track history (hours):
 
Tides and Currents Weather Stations Pressure Air Temp Water Temp Dewpoint Dewpoint Depression Visibility Wind Speed Wind Dir Waves Ship Positions

Sira

Last reported at 2015-Apr-19 13:26 UTC. Time now 2015-May-06 08:27 UTC.
Position N 36°25' E 014°05'.
Warning: this ship's position is 16 days out of date.

Length 147 m; draft 9.8 m.

MMSI: 538003434.

Date/timePositionNaut miles runAvg speedWind from/ knotsBaromVisibWave heightAir tempDewpointWater temp
2015-Apr-19 13:26N 36°25' E 014°05'1112.9
2015-Apr-19 12:33N 36°29' E 013°51'1613.2
2015-Apr-19 11:23N 36°33' E 013°33'1113.6
2015-Apr-19 10:34N 36°37' E 013°20'1413.2
2015-Apr-19 09:28N 36°42' E 013°03'1313.4
2015-Apr-19 08:32N 36°46' E 012°48'1413.0
2015-Apr-19 07:27N 36°49' E 012°31'2513.3
2015-Apr-19 05:33N 36°59' E 012°02'1313.3
2015-Apr-19 04:33N 37°05' E 011°47'1413.3
2015-Apr-19 03:32N 37°12' E 011°32'1413.2
2015-Apr-19 02:29N 37°19' E 011°17'4313.5
2015-Apr-18 23:19N 37°39' E 010°30'3813.5
2015-Apr-18 20:29N 37°48' E 009°43'1314.1
2015-Apr-18 19:32N 37°49' E 009°26'1413.9
2015-Apr-18 18:32N 37°51' E 009°08'1313.5
2015-Apr-18 17:33N 37°51' E 008°52'1413.4
2015-Apr-18 16:33N 37°50' E 008°35'5913.7
2015-Apr-18 12:14N 37°45' E 007°20'38513.3
2015-Apr-17 07:14N 36°36' W 000°36'22613.3
2015-Apr-16 14:13N 36°01' W 005°12'1015.4
2015-Apr-16 13:33N 35°58' W 005°24'  
2015-Apr-12 18:31N 28°42' W 014°44'1414.1
2015-Apr-12 17:34N 28°33' W 014°55'1313.3
2015-Apr-12 16:33N 28°23' W 015°06'1211.9
2015-Apr-12 15:33N 28°14' W 015°15'1110.8
2015-Apr-12 14:33N 28°07' W 015°24'1 0.7
2015-Apr-12 13:27N 28°07' W 015°25'0 0.1
2015-Apr-12 12:27N 28°07' W 015°25'0 0.0
2015-Apr-12 11:27N 28°07' W 015°25'0 0.0
2015-Apr-12 10:30N 28°07' W 015°25'0 0.0
2015-Apr-12 09:30N 28°07' W 015°25'0 0.0
2015-Apr-12 08:33N 28°07' W 015°25'0 0.0
2015-Apr-12 07:33N 28°07' W 015°25'0 0.0
2015-Apr-12 06:30N 28°07' W 015°25'0 0.0
2015-Apr-12 05:33N 28°07' W 015°25'0 0.0
2015-Apr-12 04:33N 28°07' W 015°25'0 0.0
2015-Apr-12 03:33N 28°07' W 015°25'1 0.7
2015-Apr-12 02:33N 28°07' W 015°24'1 1.0
2015-Apr-12 01:23N 28°08' W 015°24'0 0.0
2015-Apr-12 00:26N 28°08' W 015°24'0 0.0
2015-Apr-11 23:26N 28°08' W 015°24'0 0.0
2015-Apr-11 22:26N 28°08' W 015°24'0 0.0
2015-Apr-11 21:26N 28°08' W 015°24'0 0.0
2015-Apr-11 20:29N 28°08' W 015°24'0 0.0
2015-Apr-11 19:32N 28°08' W 015°24'0 0.0
2015-Apr-11 18:32N 28°08' W 015°24'0 0.0
2015-Apr-11 17:29N 28°09' W 015°24'0 0.0
2015-Apr-11 16:32N 28°09' W 015°24'0 0.0
2015-Apr-11 15:32N 28°08' W 015°24'0 0.0
2015-Apr-11 14:32N 28°09' W 015°24'0 0.0
2015-Apr-11 13:32N 28°09' W 015°24'0 0.0
2015-Apr-11 12:32N 28°09' W 015°24'0 0.0
2015-Apr-11 11:23N 28°09' W 015°24'0 0.0
2015-Apr-11 10:23N 28°09' W 015°24'1 0.8
2015-Apr-11 09:33N 28°08' W 015°23'7 6.6
2015-Apr-11 08:33N 28°08' W 015°16'9 9.0
2015-Apr-11 07:33N 28°09' W 015°06'9 8.7
2015-Apr-11 06:33N 28°06' W 014°57'8 8.5
2015-Apr-11 05:33N 27°57' W 014°58'9 9.0
2015-Apr-11 04:33N 27°49' W 015°02'9 8.8
2015-Apr-11 03:34N 27°41' W 015°06'9 8.5
2015-Apr-11 02:33N 27°33' W 015°10'  

Dump ship's entire track history